createdAt,value
2023-01-08T00:02:15.702Z,81.94
2023-01-08T00:04:42.240Z,81.87
2023-01-08T00:07:08.816Z,82.36
2023-01-08T00:09:35.864Z,82.03
2023-01-08T00:12:02.390Z,81.14
2023-01-08T00:14:30.612Z,81.28
2023-01-08T00:16:57.305Z,80.55
2023-01-08T00:19:23.927Z,81.18
2023-01-08T00:21:50.561Z,81.40
2023-01-08T00:24:17.121Z,81.38
2023-01-08T00:26:43.551Z,81.40
2023-01-08T00:29:10.304Z,81.01
2023-01-08T00:31:37.010Z,81.64
2023-01-08T00:34:03.627Z,81.07
2023-01-08T00:36:31.650Z,81.35
2023-01-08T00:38:59.253Z,81.40
2023-01-08T00:41:25.893Z,80.50
2023-01-08T00:43:52.418Z,80.45
2023-01-08T00:46:19.089Z,81.47
2023-01-08T00:48:45.574Z,81.20
2023-01-08T00:51:12.217Z,80.89
2023-01-08T00:53:38.758Z,80.91
2023-01-08T00:56:08.066Z,81.05
2023-01-08T00:58:34.806Z,81.02
2023-01-08T01:01:01.698Z,82.71
2023-01-08T01:03:28.288Z,83.89
2023-01-08T01:06:04.630Z,81.98
2023-01-08T01:08:31.154Z,82.19
2023-01-08T01:10:57.753Z,81.72
2023-01-08T01:13:24.288Z,82.09
2023-01-08T01:16:01.379Z,81.56
2023-01-08T01:18:28.234Z,82.71
2023-01-08T01:20:55.490Z,82.63
2023-01-08T01:23:22.009Z,84.31
2023-01-08T01:25:48.747Z,82.80
2023-01-08T01:28:16.403Z,82.56
2023-01-08T01:30:43.042Z,82.77
2023-01-08T01:33:09.587Z,82.51
2023-01-08T01:35:36.143Z,82.88
2023-01-08T01:38:02.608Z,83.04
2023-01-08T01:40:29.262Z,83.31
2023-01-08T01:42:55.848Z,83.07
2023-01-08T01:45:27.636Z,83.04
2023-01-08T01:48:13.813Z,82.54
2023-01-08T01:50:46.330Z,82.65
2023-01-08T01:53:24.225Z,83.12
2023-01-08T01:55:50.992Z,83.23
2023-01-08T01:58:27.708Z,83.44
2023-01-08T02:00:57.139Z,83.81
2023-01-08T02:03:27.066Z,83.26
2023-01-08T02:06:03.900Z,83.47
2023-01-08T02:08:41.304Z,84.12
2023-01-08T02:11:15.681Z,83.72
2023-01-08T02:13:50.802Z,83.81
2023-01-08T02:16:30.193Z,84.56
2023-01-08T02:19:02.914Z,84.02
2023-01-08T02:21:42.805Z,85.04
2023-01-08T02:24:16.197Z,85.68
2023-01-08T02:26:46.386Z,84.70
2023-01-08T02:29:20.482Z,84.81
2023-01-08T02:31:47.258Z,84.79
2023-01-08T02:34:14.305Z,85.08
2023-01-08T02:36:45.554Z,84.61
2023-01-08T02:39:44.883Z,84.82
2023-01-08T02:42:43.487Z,84.98
2023-01-08T02:45:27.068Z,85.13
2023-01-08T02:48:00.768Z,84.47
2023-01-08T02:50:37.707Z,84.94
2023-01-08T02:53:12.928Z,84.33
2023-01-08T02:55:42.346Z,84.75
2023-01-08T02:58:09.210Z,84.38
2023-01-08T03:00:37.281Z,84.76
2023-01-08T03:03:14.593Z,84.32
2023-01-08T03:05:43.654Z,85.08
2023-01-08T03:08:11.976Z,85.21
2023-01-08T03:10:41.933Z,84.26
2023-01-08T03:13:16.090Z,84.43
2023-01-08T03:15:47.882Z,85.38
2023-01-08T03:18:24.669Z,85.26
2023-01-08T03:20:51.492Z,85.23
2023-01-08T03:23:19.687Z,84.65
2023-01-08T03:25:47.829Z,84.42
2023-01-08T03:28:23.140Z,84.72
2023-01-08T03:30:52.925Z,85.17
2023-01-08T03:33:20.267Z,84.93
2023-01-08T03:35:51.289Z,84.93
2023-01-08T03:38:23.761Z,85.18
2023-01-08T03:40:56.649Z,84.96
2023-01-08T03:43:23.648Z,85.24
2023-01-08T03:45:56.153Z,85.63
2023-01-08T03:48:25.474Z,85.84
2023-01-08T03:50:52.249Z,86.52
2023-01-08T03:53:18.883Z,84.84
2023-01-08T03:55:45.390Z,84.23
2023-01-08T03:58:11.904Z,85.12
2023-01-08T04:00:38.685Z,85.49
2023-01-08T04:03:06.055Z,84.40
2023-01-08T04:05:32.760Z,84.90
2023-01-08T04:07:59.514Z,84.53
2023-01-08T04:10:26.689Z,84.86
2023-01-08T04:12:53.186Z,85.19
2023-01-08T04:15:19.918Z,85.51
2023-01-08T04:17:46.508Z,86.02
2023-01-08T04:20:13.055Z,85.21
2023-01-08T04:22:39.688Z,85.62
2023-01-08T04:25:06.525Z,85.87
2023-01-08T04:27:33.251Z,85.54
2023-01-08T04:29:59.857Z,85.48
2023-01-08T04:32:26.717Z,85.30
2023-01-08T04:34:53.380Z,85.60
2023-01-08T04:37:19.993Z,85.58
2023-01-08T04:39:46.745Z,85.52
2023-01-08T04:42:13.426Z,85.42
2023-01-08T04:44:39.982Z,85.76
2023-01-08T04:47:06.741Z,84.99
2023-01-08T04:49:33.412Z,85.45
2023-01-08T04:52:00.019Z,85.78
2023-01-08T04:54:26.455Z,86.04
2023-01-08T04:56:53.320Z,85.65
2023-01-08T04:59:20.084Z,85.20
2023-01-08T05:01:46.783Z,85.35
2023-01-08T05:04:13.377Z,85.10
2023-01-08T05:06:39.946Z,85.50
2023-01-08T05:09:06.439Z,85.37
2023-01-08T05:11:32.946Z,85.15
2023-01-08T05:13:59.472Z,85.28
2023-01-08T05:16:26.022Z,85.47
2023-01-08T05:18:52.533Z,85.59
2023-01-08T05:21:19.216Z,85.27
2023-01-08T05:23:47.840Z,85.46
2023-01-08T05:26:15.798Z,85.11
2023-01-08T05:28:42.573Z,85.43
2023-01-08T05:31:09.228Z,85.50
2023-01-08T05:33:35.828Z,85.06
2023-01-08T05:36:05.306Z,85.12
2023-01-08T05:38:31.796Z,85.36
2023-01-08T05:40:58.373Z,85.39
2023-01-08T05:43:24.965Z,85.31
2023-01-08T05:45:51.550Z,85.00
2023-01-08T05:48:18.043Z,84.89
2023-01-08T05:50:44.512Z,85.27
2023-01-08T05:53:11.036Z,85.13
2023-01-08T05:55:37.688Z,85.10
2023-01-08T05:58:05.688Z,85.20
2023-01-08T06:00:33.872Z,85.22
2023-01-08T06:03:00.667Z,85.14
2023-01-08T06:05:27.387Z,85.33
2023-01-08T06:07:53.998Z,85.61
2023-01-08T06:10:20.595Z,85.07
2023-01-08T06:12:47.446Z,85.08
2023-01-08T06:15:13.963Z,85.47
2023-01-08T06:17:40.680Z,84.70
2023-01-08T06:20:07.716Z,85.12
2023-01-08T06:22:35.251Z,84.62
2023-01-08T06:25:02.401Z,84.97
2023-01-08T06:27:29.352Z,84.83
2023-01-08T06:29:55.993Z,85.08
2023-01-08T06:32:22.542Z,85.29
2023-01-08T06:34:49.011Z,84.87
2023-01-08T06:37:15.501Z,85.33
2023-01-08T06:39:42.081Z,85.04
2023-01-08T06:42:08.592Z,85.45
2023-01-08T06:44:35.130Z,85.51
2023-01-08T06:47:01.660Z,85.67
2023-01-08T06:49:28.278Z,85.21
2023-01-08T06:51:54.929Z,85.57
2023-01-08T06:54:21.482Z,85.31
2023-01-08T06:56:54.151Z,85.44
2023-01-08T06:59:21.514Z,85.32
2023-01-08T07:01:48.369Z,85.84
2023-01-08T07:04:15.063Z,85.29
2023-01-08T07:06:41.655Z,84.86
2023-01-08T07:09:12.545Z,85.23
2023-01-08T07:11:39.722Z,84.88
2023-01-08T07:14:06.270Z,84.91
2023-01-08T07:16:32.790Z,84.93
2023-01-08T07:18:59.298Z,85.08
2023-01-08T07:21:25.934Z,85.09
2023-01-08T07:23:52.392Z,84.94
2023-01-08T07:26:19.018Z,85.12
2023-01-08T07:28:45.723Z,85.06
2023-01-08T07:31:12.417Z,85.09
2023-01-08T07:33:38.969Z,85.31
2023-01-08T07:36:06.100Z,85.82
2023-01-08T07:38:32.645Z,85.92
2023-01-08T07:40:59.435Z,85.85
2023-01-08T07:43:26.523Z,86.26
2023-01-08T07:45:53.121Z,86.14
2023-01-08T07:48:19.647Z,85.86
2023-01-08T07:50:46.175Z,86.32
2023-01-08T07:53:16.918Z,86.87
2023-01-08T07:55:43.813Z,86.74
2023-01-08T07:58:13.467Z,85.70
2023-01-08T08:00:40.406Z,87.43
2023-01-08T08:03:11.312Z,88.04
2023-01-08T08:05:38.406Z,87.22
2023-01-08T08:08:10.539Z,86.95
2023-01-08T08:10:37.572Z,88.06
2023-01-08T08:13:04.525Z,87.89
2023-01-08T08:15:31.273Z,88.25
2023-01-08T08:17:57.783Z,87.86
2023-01-08T08:20:24.488Z,86.94
2023-01-08T08:22:51.308Z,87.70
2023-01-08T08:25:17.957Z,88.07
2023-01-08T08:27:45.316Z,88.54
2023-01-08T08:30:12.813Z,87.95
2023-01-08T08:32:39.315Z,88.47
2023-01-08T08:35:06.876Z,87.99
2023-01-08T08:37:33.463Z,87.12
2023-01-08T08:40:00.051Z,88.36
2023-01-08T08:42:26.692Z,86.92
2023-01-08T08:44:53.218Z,87.72
2023-01-08T08:47:19.888Z,87.64
2023-01-08T08:49:46.399Z,87.56
2023-01-08T08:52:12.927Z,86.96
2023-01-08T08:54:41.579Z,86.93
2023-01-08T08:57:09.478Z,86.26
2023-01-08T08:59:36.310Z,86.61
2023-01-08T09:02:03.662Z,86.42
2023-01-08T09:04:33.761Z,86.69
2023-01-08T09:07:01.119Z,86.76
2023-01-08T09:09:27.711Z,86.95
2023-01-08T09:11:54.870Z,84.71
2023-01-08T09:14:21.592Z,84.57
2023-01-08T09:16:48.155Z,86.42
2023-01-08T09:19:14.871Z,85.82
2023-01-08T09:21:41.591Z,83.78
2023-01-08T09:24:08.564Z,85.06
2023-01-08T09:26:35.119Z,84.24
2023-01-08T09:29:01.614Z,84.51
2023-01-08T09:31:28.280Z,83.09
2023-01-08T09:33:54.808Z,82.20
2023-01-08T09:36:21.292Z,81.96
2023-01-08T09:38:48.009Z,85.36
2023-01-08T09:41:22.756Z,85.70
2023-01-08T09:43:52.644Z,85.04
2023-01-08T09:46:23.284Z,85.70
2023-01-08T09:48:51.955Z,83.93
2023-01-08T09:51:20.831Z,82.48
2023-01-08T09:53:54.862Z,82.44
2023-01-08T09:56:21.584Z,85.16
2023-01-08T09:58:53.654Z,85.25
2023-01-08T10:01:23.150Z,85.51
2023-01-08T10:04:25.617Z,82.10
2023-01-08T10:07:11.817Z,83.68
2023-01-08T10:09:40.141Z,83.67
2023-01-08T10:12:07.704Z,84.61
2023-01-08T10:14:39.923Z,84.23
2023-01-08T10:17:23.798Z,83.69
2023-01-08T10:19:50.599Z,83.12
2023-01-08T10:22:20.761Z,84.76
2023-01-08T10:24:47.789Z,84.41
2023-01-08T10:27:23.425Z,84.29
2023-01-08T10:29:51.849Z,84.23
2023-01-08T10:32:26.696Z,81.75
2023-01-08T10:34:56.674Z,84.14
2023-01-08T10:37:43.015Z,82.34
2023-01-08T10:40:38.695Z,82.22
2023-01-08T10:43:15.824Z,83.46
2023-01-08T10:45:44.887Z,81.80
2023-01-08T10:48:18.153Z,84.11
2023-01-08T10:50:44.763Z,83.22
2023-01-08T10:53:28.738Z,83.37
2023-01-08T10:56:00.500Z,83.40
2023-01-08T10:58:29.419Z,83.52
2023-01-08T11:01:08.562Z,83.06
2023-01-08T11:03:35.948Z,82.54
2023-01-08T11:06:12.709Z,79.47
2023-01-08T11:08:39.306Z,81.18
2023-01-08T11:11:09.899Z,82.00
2023-01-08T11:13:36.509Z,80.99
2023-01-08T11:16:06.611Z,81.04
2023-01-08T11:18:45.409Z,81.77
2023-01-08T11:21:23.791Z,78.73
2023-01-08T11:24:21.353Z,81.06
2023-01-08T11:26:52.255Z,79.79
2023-01-08T11:29:28.252Z,80.85
2023-01-08T11:32:08.487Z,80.83
2023-01-08T11:34:43.663Z,81.90
2023-01-08T11:37:30.582Z,80.73
2023-01-08T11:39:57.296Z,79.24
2023-01-08T11:42:52.150Z,80.86
2023-01-08T11:45:42.631Z,80.29
2023-01-08T11:48:14.471Z,80.05
2023-01-08T11:50:59.482Z,80.28
2023-01-08T11:53:37.990Z,76.67
2023-01-08T11:56:17.101Z,79.52
2023-01-08T11:59:18.508Z,78.15
2023-01-08T12:01:58.299Z,79.47
2023-01-08T12:05:02.105Z,79.86
2023-01-08T12:07:45.108Z,77.93
2023-01-08T12:10:21.072Z,78.76
2023-01-08T12:12:47.599Z,79.21
2023-01-08T12:15:29.470Z,79.06
2023-01-08T12:18:08.439Z,79.01
2023-01-08T12:20:39.954Z,78.31
2023-01-08T12:23:24.995Z,78.38
2023-01-08T12:26:06.944Z,78.43
2023-01-08T12:28:33.438Z,77.79
2023-01-08T12:31:21.832Z,76.89
2023-01-08T12:33:54.240Z,76.13
2023-01-08T12:36:29.827Z,77.14
2023-01-08T12:39:04.876Z,77.39
2023-01-08T12:41:34.938Z,76.93
2023-01-08T12:44:05.952Z,75.96
2023-01-08T12:46:37.528Z,77.32
2023-01-08T12:49:06.616Z,76.67
2023-01-08T12:51:39.299Z,76.71
2023-01-08T12:54:37.929Z,76.69
2023-01-08T12:57:16.843Z,75.17
2023-01-08T13:00:20.256Z,76.16
2023-01-08T13:02:57.905Z,76.32
2023-01-08T13:05:24.435Z,72.03
2023-01-08T13:07:58.086Z,75.21
2023-01-08T13:10:39.219Z,75.07
2023-01-08T13:13:08.596Z,75.85
2023-01-08T13:15:36.396Z,75.78
2023-01-08T13:18:19.836Z,73.11
2023-01-08T13:21:01.516Z,72.61
2023-01-08T13:23:30.847Z,74.82
2023-01-08T13:26:01.027Z,73.89
2023-01-08T13:28:41.488Z,74.42
2023-01-08T13:31:27.169Z,73.31
2023-01-08T13:33:55.085Z,73.54
2023-01-08T13:36:29.259Z,73.59
2023-01-08T13:39:11.682Z,73.13
2023-01-08T13:41:42.858Z,72.55
2023-01-08T13:44:34.448Z,72.24
2023-01-08T13:47:04.531Z,71.72
2023-01-08T13:49:53.292Z,71.92
2023-01-08T13:52:33.514Z,71.78
2023-01-08T13:55:03.595Z,71.60
2023-01-08T13:57:43.467Z,71.55
2023-01-08T14:00:19.235Z,69.94
2023-01-08T14:02:50.520Z,69.57
2023-01-08T14:05:21.678Z,69.94
2023-01-08T14:07:48.257Z,70.87
2023-01-08T14:10:16.586Z,70.90
2023-01-08T14:12:43.995Z,70.88
2023-01-08T14:15:21.954Z,69.38
2023-01-08T14:17:48.928Z,70.06
2023-01-08T14:20:23.355Z,70.79
2023-01-08T14:22:50.039Z,70.32
2023-01-08T14:25:20.105Z,69.73
2023-01-08T14:28:05.736Z,70.87
2023-01-08T14:30:33.119Z,70.33
2023-01-08T14:33:00.904Z,70.64
2023-01-08T14:35:34.847Z,68.90
2023-01-08T14:38:03.189Z,70.26
2023-01-08T14:40:35.387Z,70.35
2023-01-08T14:43:08.680Z,70.35
2023-01-08T14:45:37.744Z,70.10
2023-01-08T14:48:25.172Z,70.05
2023-01-08T14:51:00.117Z,69.92
2023-01-08T14:53:37.471Z,69.50
2023-01-08T14:56:06.878Z,70.37
2023-01-08T14:58:42.383Z,70.30
2023-01-08T15:01:17.407Z,70.36
2023-01-08T15:03:46.833Z,69.81
2023-01-08T15:06:31.680Z,69.56
2023-01-08T15:08:59.625Z,69.99
2023-01-08T15:11:29.631Z,70.10
2023-01-08T15:13:57.805Z,70.09
2023-01-08T15:16:39.136Z,69.57
2023-01-08T15:19:17.784Z,68.84
2023-01-08T15:21:49.214Z,69.52
2023-01-08T15:24:28.999Z,69.95
2023-01-08T15:26:56.975Z,69.47
2023-01-08T15:29:33.118Z,69.13
2023-01-08T15:32:22.430Z,69.48
2023-01-08T15:34:49.839Z,69.61
2023-01-08T15:37:16.612Z,69.49
2023-01-08T15:39:43.685Z,69.61
2023-01-08T15:42:49.335Z,68.39
2023-01-08T15:45:24.238Z,69.32
2023-01-08T15:47:50.997Z,69.86
2023-01-08T15:50:18.107Z,69.52
2023-01-08T15:52:44.922Z,69.03
2023-01-08T15:55:20.886Z,68.64
2023-01-08T15:57:48.063Z,69.89
2023-01-08T16:00:16.973Z,69.06
2023-01-08T16:02:51.671Z,70.11
2023-01-08T16:05:20.926Z,69.43
2023-01-08T16:07:47.696Z,69.06
2023-01-08T16:10:18.127Z,70.28
2023-01-08T16:12:45.307Z,70.45
2023-01-08T16:15:13.352Z,70.70
2023-01-08T16:17:40.039Z,70.74
2023-01-08T16:20:07.878Z,70.69
2023-01-08T16:22:34.755Z,70.85
2023-01-08T16:25:02.135Z,70.55
2023-01-08T16:27:30.766Z,70.13
2023-01-08T16:29:57.716Z,69.81
2023-01-08T16:32:24.515Z,70.30
2023-01-08T16:34:51.050Z,69.71
2023-01-08T16:37:17.717Z,70.01
2023-01-08T16:39:44.246Z,70.93
2023-01-08T16:42:12.139Z,70.44
2023-01-08T16:44:38.859Z,70.51
2023-01-08T16:47:05.592Z,69.70
2023-01-08T16:49:33.538Z,71.09
2023-01-08T16:52:00.406Z,70.63
2023-01-08T16:54:27.450Z,70.70
2023-01-08T16:56:54.495Z,70.81
2023-01-08T16:59:23.630Z,71.61
2023-01-08T17:01:51.770Z,71.28
2023-01-08T17:04:18.618Z,71.38
2023-01-08T17:06:47.126Z,71.38
2023-01-08T17:09:14.758Z,72.06
2023-01-08T17:11:42.274Z,71.64
2023-01-08T17:14:09.335Z,72.23
2023-01-08T17:16:36.069Z,71.36
2023-01-08T17:19:02.701Z,71.85
2023-01-08T17:21:29.361Z,71.60
2023-01-08T17:23:56.021Z,71.77
2023-01-08T17:26:22.972Z,72.01
2023-01-08T17:28:49.540Z,72.42
2023-01-08T17:31:19.694Z,72.01
2023-01-08T17:33:50.556Z,71.98
2023-01-08T17:36:21.283Z,71.89
2023-01-08T17:38:50.106Z,71.13
2023-01-08T17:41:36.389Z,71.71
2023-01-08T17:44:06.791Z,71.84
2023-01-08T17:46:39.717Z,72.26
2023-01-08T17:49:06.285Z,71.71
2023-01-08T17:51:33.496Z,72.17
2023-01-08T17:54:00.797Z,72.00
2023-01-08T17:56:27.705Z,71.68
2023-01-08T17:58:54.338Z,71.83
2023-01-08T18:01:21.662Z,71.52
2023-01-08T18:03:48.288Z,71.80
2023-01-08T18:06:14.957Z,71.46
2023-01-08T18:08:41.550Z,72.09
2023-01-08T18:11:10.578Z,72.30
2023-01-08T18:13:38.028Z,72.25
2023-01-08T18:16:10.827Z,72.59
2023-01-08T18:18:38.659Z,71.64
2023-01-08T18:21:06.879Z,71.85
2023-01-08T18:23:33.783Z,72.75
2023-01-08T18:26:05.986Z,72.76
2023-01-08T18:28:32.835Z,72.82
2023-01-08T18:30:59.461Z,72.75
2023-01-08T18:33:27.192Z,72.65
2023-01-08T18:35:53.820Z,72.45
2023-01-08T18:38:20.513Z,73.12
2023-01-08T18:40:47.153Z,72.76
2023-01-08T18:43:13.765Z,73.12
2023-01-08T18:45:41.108Z,73.14
2023-01-08T18:48:09.568Z,72.49
2023-01-08T18:50:40.452Z,72.73
2023-01-08T18:53:10.040Z,72.88
2023-01-08T18:55:37.280Z,72.78
2023-01-08T18:58:04.661Z,73.10
2023-01-08T19:00:31.793Z,72.91
2023-01-08T19:02:58.415Z,72.95
2023-01-08T19:05:25.364Z,72.64
2023-01-08T19:07:51.949Z,73.24
2023-01-08T19:10:18.613Z,73.25
2023-01-08T19:12:45.569Z,72.87
2023-01-08T19:15:12.358Z,73.22
2023-01-08T19:17:39.381Z,72.94
2023-01-08T19:20:06.821Z,72.61
2023-01-08T19:22:33.798Z,73.56
2023-01-08T19:25:00.691Z,72.45
2023-01-08T19:27:27.440Z,73.18
2023-01-08T19:29:54.110Z,73.31
2023-01-08T19:32:20.749Z,73.51
2023-01-08T19:34:48.022Z,73.63
2023-01-08T19:37:15.159Z,73.17
2023-01-08T19:39:41.856Z,74.01
2023-01-08T19:42:28.880Z,73.53
2023-01-08T19:44:55.949Z,73.50
2023-01-08T19:47:22.952Z,73.51
2023-01-08T19:49:49.517Z,73.72
2023-01-08T19:52:17.231Z,73.44
2023-01-08T19:54:43.888Z,73.52
2023-01-08T19:57:10.424Z,74.04
2023-01-08T19:59:36.971Z,74.11
2023-01-08T20:02:03.658Z,73.07
2023-01-08T20:04:31.148Z,73.81
2023-01-08T20:06:58.312Z,73.16
2023-01-08T20:09:26.158Z,72.56
2023-01-08T20:11:52.644Z,73.15
2023-01-08T20:14:21.125Z,73.26
2023-01-08T20:16:48.049Z,73.12
2023-01-08T20:19:14.685Z,73.24
2023-01-08T20:21:41.308Z,74.07
2023-01-08T20:24:11.179Z,72.93
2023-01-08T20:26:38.522Z,73.25
2023-01-08T20:29:05.968Z,73.90
2023-01-08T20:31:34.485Z,73.54
2023-01-08T20:34:04.085Z,73.71
2023-01-08T20:36:33.170Z,73.66
2023-01-08T20:39:01.878Z,73.57
2023-01-08T20:41:29.329Z,74.05
2023-01-08T20:43:56.648Z,74.20
2023-01-08T20:46:28.470Z,74.01
2023-01-08T20:49:03.600Z,73.92
2023-01-08T20:51:33.707Z,74.29
2023-01-08T20:54:01.873Z,73.74
2023-01-08T20:56:28.711Z,74.26
2023-01-08T20:58:57.313Z,73.19
2023-01-08T21:01:27.956Z,73.42
2023-01-08T21:03:56.766Z,73.38
2023-01-08T21:06:26.136Z,73.03
2023-01-08T21:08:56.135Z,72.71
2023-01-08T21:11:23.958Z,72.70
2023-01-08T21:13:51.355Z,72.99
2023-01-08T21:16:22.874Z,71.79
2023-01-08T21:18:50.460Z,72.27
2023-01-08T21:21:22.990Z,72.26
2023-01-08T21:23:50.137Z,72.44
2023-01-08T21:26:18.840Z,72.23
2023-01-08T21:28:46.499Z,73.23
2023-01-08T21:31:20.844Z,73.17
2023-01-08T21:33:48.934Z,72.98
2023-01-08T21:36:18.895Z,73.60
2023-01-08T21:38:45.968Z,74.84
2023-01-08T21:41:36.020Z,73.13
2023-01-08T21:44:23.208Z,73.46
2023-01-08T21:46:50.351Z,72.79
2023-01-08T21:49:16.903Z,73.60
2023-01-08T21:52:02.141Z,73.27
2023-01-08T21:54:28.553Z,75.11
2023-01-08T21:56:55.164Z,73.07
2023-01-08T21:59:21.753Z,76.57
2023-01-08T22:01:48.633Z,73.51
2023-01-08T22:04:15.753Z,74.20
2023-01-08T22:06:42.967Z,75.33
2023-01-08T22:09:09.852Z,71.99
2023-01-08T22:11:36.619Z,73.37
2023-01-08T22:14:03.332Z,76.69
2023-01-08T22:16:29.876Z,74.71
2023-01-08T22:18:57.030Z,73.77
2023-01-08T22:21:23.827Z,74.52
2023-01-08T22:23:50.517Z,74.88
2023-01-08T22:26:17.129Z,74.44
2023-01-08T22:28:43.649Z,74.00
2023-01-08T22:31:12.314Z,74.90
2023-01-08T22:33:40.049Z,75.39
2023-01-08T22:36:09.452Z,77.11
2023-01-08T22:38:37.236Z,76.43
2023-01-08T22:41:04.538Z,77.82
2023-01-08T22:43:31.123Z,75.32
2023-01-08T22:45:59.764Z,76.86
2023-01-08T22:48:27.633Z,76.45
2023-01-08T22:51:02.306Z,77.27
2023-01-08T22:53:29.010Z,79.15
2023-01-08T22:55:55.596Z,78.94
2023-01-08T22:58:22.294Z,79.66
2023-01-08T23:00:48.822Z,77.92
2023-01-08T23:03:15.391Z,78.93
2023-01-08T23:05:41.908Z,80.17
2023-01-08T23:08:08.661Z,79.00
2023-01-08T23:10:35.390Z,78.86
2023-01-08T23:13:01.930Z,81.61
2023-01-08T23:15:28.642Z,81.56
2023-01-08T23:17:55.195Z,78.10
2023-01-08T23:20:24.001Z,78.37
2023-01-08T23:22:50.907Z,78.08
2023-01-08T23:25:17.963Z,79.92
2023-01-08T23:27:45.052Z,78.54
2023-01-08T23:30:12.507Z,78.64
2023-01-08T23:32:39.900Z,78.27
2023-01-08T23:35:07.025Z,78.30
2023-01-08T23:37:34.232Z,78.82
2023-01-08T23:40:00.977Z,78.64
2023-01-08T23:42:29.517Z,79.60
2023-01-08T23:44:56.505Z,78.69
2023-01-08T23:47:23.019Z,78.99
2023-01-08T23:49:49.467Z,78.52
2023-01-08T23:52:16.021Z,78.98
2023-01-08T23:54:42.629Z,79.27
2023-01-08T23:57:09.194Z,78.81
2023-01-08T23:59:35.809Z,79.05
